Time;durP1;ratioP1;P1;durP2;ratioP2;P2;SDS_P1;SDS_P2;PMS_P1;PMS_P2;Temp;Humidity;BMP_temperature;BMP_pressure;BME280_temperature;BME280_humidity;BME280_pressure;Samples;Min_cycle;Max_cycle;Signal;HPM_P1;HPM_P2
2023/08/03 00:01:43;;;;;;;;;;;16.40;99.90;;;;;;5031141;28;19928;-45
2023/08/03 00:04:09;;;;;;;;;;;16.50;99.90;;;;;;5036182;28;20343;-45
2023/08/03 00:06:36;;;;;;;;;;;16.50;99.90;;;;;;5030432;28;20373;-44
2023/08/03 00:09:03;;;;;;;;;;;16.40;99.90;;;;;;5031465;28;19964;-43
2023/08/03 00:11:31;;;;;;;;;;;16.40;99.90;;;;;;5027964;28;19928;-43
2023/08/03 00:13:58;;;;;;;;;;;16.40;99.90;;;;;;5040943;28;19920;-43
2023/08/03 00:16:24;;;;;;;;;;;16.50;99.90;;;;;;5028053;28;19921;-43
2023/08/03 00:18:51;;;;;;;;;;;16.50;99.90;;;;;;5030947;28;19975;-43
2023/08/03 00:21:18;;;;;;;;;;;16.50;99.90;;;;;;5037919;28;19924;-43
2023/08/03 00:23:44;;;;;;;;;;;16.50;99.90;;;;;;5030637;28;20369;-44
2023/08/03 00:26:11;;;;;;;;;;;16.40;99.90;;;;;;5030470;28;20301;-45
2023/08/03 00:28:39;;;;;;;;;;;16.40;99.90;;;;;;5031152;28;19947;-45
2023/08/03 00:31:06;;;;;;;;;;;16.40;99.90;;;;;;5030123;28;19967;-44
2023/08/03 00:33:32;;;;;;;;;;;16.40;99.90;;;;;;5030204;28;20384;-43
2023/08/03 00:35:59;;;;;;;;;;;16.40;99.90;;;;;;5031279;28;19928;-43
2023/08/03 00:38:26;;;;;;;;;;;16.40;99.90;;;;;;5033652;28;19921;-43
2023/08/03 00:40:53;;;;;;;;;;;16.40;99.90;;;;;;5036900;28;19944;-44
2023/08/03 00:43:19;;;;;;;;;;;16.40;99.90;;;;;;5037010;28;19928;-43
2023/08/03 00:45:47;;;;;;;;;;;16.40;99.90;;;;;;5039269;28;19928;-43
2023/08/03 00:48:14;;;;;;;;;;;16.40;99.90;;;;;;5035039;28;19921;-43
2023/08/03 00:50:41;;;;;;;;;;;16.40;99.90;;;;;;5038132;28;20401;-43
2023/08/03 00:53:08;;;;;;;;;;;16.40;99.90;;;;;;5037035;28;19975;-43
2023/08/03 00:55:34;;;;;;;;;;;16.40;99.90;;;;;;5037196;28;19925;-43
2023/08/03 00:58:01;;;;;;;;;;;16.40;99.90;;;;;;5035146;28;19978;-43
2023/08/03 01:00:28;;;;;;;;;;;16.40;99.90;;;;;;5040302;28;19927;-43
2023/08/03 01:02:56;;;;;;;;;;;16.40;99.90;;;;;;5035653;28;19928;-43
2023/08/03 01:05:25;;;;;;;;;;;16.40;99.90;;;;;;5032735;28;19927;-43
2023/08/03 01:07:52;;;;;;;;;;;16.40;99.90;;;;;;5039304;28;19925;-43
2023/08/03 01:10:19;;;;;;;;;;;16.40;99.90;;;;;;5037267;28;19921;-43
2023/08/03 01:12:45;;;;;;;;;;;16.40;99.90;;;;;;5040498;28;19990;-43
2023/08/03 01:15:12;;;;;;;;;;;16.40;99.90;;;;;;5044365;28;19933;-43
2023/08/03 01:17:39;;;;;;;;;;;16.40;99.90;;;;;;5037140;28;19967;-44
2023/08/03 01:20:08;;;;;;;;;;;16.40;99.90;;;;;;5049618;28;19928;-44
2023/08/03 01:22:39;;;;;;;;;;;16.40;99.90;;;;;;5038636;28;19925;-44
2023/08/03 01:25:06;;;;;;;;;;;16.40;99.90;;;;;;5050931;28;20365;-43
2023/08/03 01:27:33;;;;;;;;;;;16.40;99.90;;;;;;5050990;28;19975;-44
2023/08/03 01:29:59;;;;;;;;;;;16.40;99.90;;;;;;5055534;28;19998;-43
2023/08/03 01:32:26;;;;;;;;;;;16.40;99.90;;;;;;5037689;28;20003;-43
2023/08/03 01:34:53;;;;;;;;;;;16.40;99.90;;;;;;5045725;28;19928;-43
2023/08/03 01:37:19;;;;;;;;;;;16.40;99.90;;;;;;5035920;28;19983;-44
2023/08/03 01:39:47;;;;;;;;;;;16.40;99.90;;;;;;5035667;28;19971;-43
2023/08/03 01:42:14;;;;;;;;;;;16.40;99.90;;;;;;5036178;28;19975;-43
2023/08/03 01:44:41;;;;;;;;;;;16.40;99.90;;;;;;5038904;28;19924;-44
2023/08/03 01:47:09;;;;;;;;;;;16.40;99.90;;;;;;5040223;28;19975;-42
2023/08/03 01:49:36;;;;;;;;;;;16.40;99.90;;;;;;5034648;28;19927;-44
2023/08/03 01:52:03;;;;;;;;;;;16.40;99.90;;;;;;5037342;28;20293;-43
2023/08/03 01:54:30;;;;;;;;;;;16.40;99.90;;;;;;5041206;28;20365;-43
2023/08/03 01:56:58;;;;;;;;;;;16.40;99.90;;;;;;5039042;28;20376;-44
2023/08/03 01:59:24;;;;;;;;;;;16.40;99.90;;;;;;5035403;28;19967;-44
2023/08/03 02:01:51;;;;;;;;;;;16.40;99.90;;;;;;5032392;28;19921;-44
2023/08/03 02:04:18;;;;;;;;;;;16.40;99.90;;;;;;5041459;28;19921;-43
2023/08/03 02:06:45;;;;;;;;;;;16.40;99.90;;;;;;5032461;28;21642;-43
2023/08/03 02:09:12;;;;;;;;;;;16.40;99.90;;;;;;5031658;28;20348;-44
2023/08/03 02:11:39;;;;;;;;;;;16.40;99.90;;;;;;5044243;28;19921;-44
2023/08/03 02:14:07;;;;;;;;;;;16.40;99.90;;;;;;5036928;28;19920;-43
2023/08/03 02:16:34;;;;;;;;;;;16.40;99.90;;;;;;5031874;28;20369;-43
2023/08/03 02:19:00;;;;;;;;;;;16.40;99.90;;;;;;5040045;28;19921;-44
2023/08/03 02:21:27;;;;;;;;;;;16.40;99.90;;;;;;5035098;28;19929;-44
2023/08/03 02:23:54;;;;;;;;;;;16.40;99.90;;;;;;5033359;28;19944;-43
2023/08/03 02:26:21;;;;;;;;;;;16.40;99.90;;;;;;5032825;28;19983;-43
2023/08/03 02:28:47;;;;;;;;;;;16.40;99.90;;;;;;5032412;28;19921;-43
2023/08/03 02:31:16;;;;;;;;;;;16.40;99.90;;;;;;5052191;28;20007;-43
2023/08/03 02:33:42;;;;;;;;;;;16.40;99.90;;;;;;5037205;28;19971;-43
2023/08/03 02:36:09;;;;;;;;;;;16.40;99.90;;;;;;5031381;28;19928;-43
2023/08/03 02:38:36;;;;;;;;;;;16.40;99.90;;;;;;5031574;28;19925;-44
2023/08/03 02:41:02;;;;;;;;;;;16.50;99.90;;;;;;5037090;28;19929;-44
2023/08/03 02:43:29;;;;;;;;;;;16.40;99.90;;;;;;5031237;28;19976;-43
2023/08/03 02:45:56;;;;;;;;;;;16.40;99.90;;;;;;5036891;28;19921;-44
2023/08/03 02:48:24;;;;;;;;;;;16.40;99.90;;;;;;5032039;28;19929;-43
2023/08/03 02:50:50;;;;;;;;;;;16.40;99.90;;;;;;5049620;28;19925;-43
2023/08/03 02:53:17;;;;;;;;;;;16.50;99.90;;;;;;5039582;28;20348;-43
2023/08/03 02:55:44;;;;;;;;;;;16.50;99.90;;;;;;5031528;28;19921;-43
2023/08/03 02:58:10;;;;;;;;;;;16.50;99.90;;;;;;5030030;28;19920;-44
2023/08/03 03:00:37;;;;;;;;;;;16.50;99.90;;;;;;5035030;28;20012;-44
2023/08/03 03:03:04;;;;;;;;;;;16.50;99.90;;;;;;5045082;28;19978;-43
2023/08/03 03:05:32;;;;;;;;;;;16.50;99.90;;;;;;5033604;28;19936;-43
2023/08/03 03:07:58;;;;;;;;;;;16.50;99.90;;;;;;5036520;28;19932;-43
2023/08/03 03:10:25;;;;;;;;;;;16.50;99.90;;;;;;5033487;28;20442;-44
2023/08/03 03:12:52;;;;;;;;;;;16.50;99.90;;;;;;5041127;28;19921;-44
2023/08/03 03:15:18;;;;;;;;;;;16.50;99.90;;;;;;5032488;28;19982;-44
2023/08/03 03:17:45;;;;;;;;;;;16.60;99.90;;;;;;5040596;28;19992;-44
2023/08/03 03:20:12;;;;;;;;;;;16.50;99.90;;;;;;5039206;28;19939;-43
2023/08/03 03:22:40;;;;;;;;;;;16.60;99.90;;;;;;5037655;28;19948;-44
2023/08/03 03:25:07;;;;;;;;;;;16.60;99.90;;;;;;5031508;28;21162;-44
2023/08/03 03:27:34;;;;;;;;;;;16.60;99.90;;;;;;5041531;28;19925;-44
2023/08/03 03:30:00;;;;;;;;;;;16.60;99.90;;;;;;5032629;28;19921;-43
2023/08/03 03:32:27;;;;;;;;;;;16.60;99.90;;;;;;5032052;28;20407;-43
2023/08/03 03:34:54;;;;;;;;;;;16.60;99.90;;;;;;5032339;28;19921;-44
2023/08/03 03:37:20;;;;;;;;;;;16.60;99.90;;;;;;5032361;28;19931;-44
2023/08/03 03:39:48;;;;;;;;;;;16.60;99.90;;;;;;5030205;28;19963;-44
2023/08/03 03:42:15;;;;;;;;;;;16.60;99.90;;;;;;5045816;28;19929;-44
2023/08/03 03:44:42;;;;;;;;;;;16.60;99.90;;;;;;5033148;28;19968;-44
2023/08/03 03:47:08;;;;;;;;;;;16.60;99.90;;;;;;5031327;28;19921;-43
2023/08/03 03:49:35;;;;;;;;;;;16.60;99.90;;;;;;5032572;28;19920;-43
2023/08/03 03:52:02;;;;;;;;;;;16.60;99.90;;;;;;5030785;28;19928;-44
2023/08/03 03:54:29;;;;;;;;;;;16.50;99.90;;;;;;5030263;28;19921;-43
2023/08/03 03:56:58;;;;;;;;;;;16.50;99.90;;;;;;5030871;28;19924;-44
2023/08/03 03:59:24;;;;;;;;;;;16.50;99.90;;;;;;5032115;28;20304;-43
2023/08/03 04:01:51;;;;;;;;;;;16.50;99.90;;;;;;5040805;28;19928;-44
2023/08/03 04:04:18;;;;;;;;;;;16.50;99.90;;;;;;5039074;28;19925;-44
2023/08/03 04:06:44;;;;;;;;;;;16.50;99.90;;;;;;5030647;28;19967;-43
2023/08/03 04:09:11;;;;;;;;;;;16.50;99.90;;;;;;5030091;28;20423;-44
2023/08/03 04:11:38;;;;;;;;;;;16.50;99.90;;;;;;5030014;28;19928;-44
2023/08/03 04:14:06;;;;;;;;;;;16.50;99.90;;;;;;5029041;28;19925;-44
2023/08/03 04:16:32;;;;;;;;;;;16.50;99.90;;;;;;5040870;28;19925;-43
2023/08/03 04:18:59;;;;;;;;;;;16.50;99.90;;;;;;5025536;28;20416;-44
2023/08/03 04:21:26;;;;;;;;;;;16.50;99.90;;;;;;5032930;28;19920;-44
2023/08/03 04:23:52;;;;;;;;;;;16.50;99.90;;;;;;5030480;28;19960;-44
2023/08/03 04:26:19;;;;;;;;;;;16.50;99.90;;;;;;5031417;28;19921;-43
2023/08/03 04:28:46;;;;;;;;;;;16.50;99.90;;;;;;5030772;28;20332;-43
2023/08/03 04:31:14;;;;;;;;;;;16.50;99.90;;;;;;5049404;28;19924;-43
2023/08/03 04:33:40;;;;;;;;;;;16.50;99.90;;;;;;5035097;28;20269;-44
2023/08/03 04:36:07;;;;;;;;;;;16.50;99.90;;;;;;5034095;28;19929;-44
2023/08/03 04:38:34;;;;;;;;;;;16.50;99.90;;;;;;5029700;28;19928;-43
2023/08/03 04:41:01;;;;;;;;;;;16.50;99.90;;;;;;5029438;28;19928;-44
2023/08/03 04:43:28;;;;;;;;;;;16.50;99.90;;;;;;5031572;28;19927;-44
2023/08/03 04:45:54;;;;;;;;;;;16.50;99.90;;;;;;5012367;28;19925;-43
2023/08/03 04:48:22;;;;;;;;;;;16.50;99.90;;;;;;5027143;28;19943;-44
2023/08/03 04:50:49;;;;;;;;;;;16.50;99.90;;;;;;5034506;28;19974;-44
2023/08/03 04:53:16;;;;;;;;;;;16.40;99.90;;;;;;5044090;28;19928;-45
2023/08/03 04:55:44;;;;;;;;;;;16.40;99.90;;;;;;5030466;28;19928;-44
2023/08/03 04:58:11;;;;;;;;;;;16.50;99.90;;;;;;5032031;28;19994;-45
2023/08/03 05:00:38;;;;;;;;;;;16.40;99.90;;;;;;5031352;28;19921;-45
2023/08/03 05:03:04;;;;;;;;;;;16.50;99.90;;;;;;5030613;28;19924;-44
2023/08/03 05:05:33;;;;;;;;;;;16.50;99.90;;;;;;5031329;28;19921;-44
2023/08/03 05:07:59;;;;;;;;;;;16.50;99.90;;;;;;5037909;28;19932;-45
2023/08/03 05:10:26;;;;;;;;;;;16.50;99.90;;;;;;5030289;28;19921;-44
2023/08/03 05:12:52;;;;;;;;;;;16.50;99.90;;;;;;5027178;28;19928;-44
2023/08/03 05:15:19;;;;;;;;;;;16.60;99.90;;;;;;5024833;28;19983;-44
2023/08/03 05:17:48;;;;;;;;;;;16.60;99.90;;;;;;5029208;28;19932;-44
2023/08/03 05:20:15;;;;;;;;;;;16.60;99.90;;;;;;5031960;28;19921;-45
2023/08/03 05:22:43;;;;;;;;;;;16.70;99.90;;;;;;5050256;28;19921;-44
2023/08/03 05:25:10;;;;;;;;;;;16.70;99.90;;;;;;5033478;28;20376;-44
2023/08/03 05:27:36;;;;;;;;;;;16.70;99.90;;;;;;5036247;28;20015;-44
2023/08/03 05:30:03;;;;;;;;;;;16.70;99.90;;;;;;5032684;28;20352;-45
2023/08/03 05:32:30;;;;;;;;;;;16.80;99.90;;;;;;5033857;28;19925;-44
2023/08/03 05:34:57;;;;;;;;;;;16.90;99.90;;;;;;5052520;28;20361;-45
2023/08/03 05:37:23;;;;;;;;;;;16.90;99.90;;;;;;5034705;28;19925;-45
2023/08/03 05:39:51;;;;;;;;;;;17.00;99.90;;;;;;5037869;28;19925;-45
2023/08/03 05:42:18;;;;;;;;;;;17.00;99.90;;;;;;5029478;28;19925;-45
2023/08/03 05:44:45;;;;;;;;;;;17.10;99.90;;;;;;5034214;28;19921;-44
2023/08/03 05:47:11;;;;;;;;;;;17.20;99.90;;;;;;5036989;28;19921;-45
2023/08/03 05:49:38;;;;;;;;;;;17.30;99.90;;;;;;5036395;28;19920;-44
2023/08/03 05:52:06;;;;;;;;;;;17.30;99.90;;;;;;5035140;28;19920;-44
2023/08/03 05:54:33;;;;;;;;;;;17.40;99.90;;;;;;5045930;28;19928;-44
2023/08/03 05:57:01;;;;;;;;;;;17.50;99.90;;;;;;5033921;28;19924;-44
2023/08/03 05:59:28;;;;;;;;;;;17.60;99.90;;;;;;5036874;28;19967;-45
2023/08/03 06:01:54;;;;;;;;;;;17.60;99.90;;;;;;5033538;28;19950;-45
2023/08/03 06:04:21;;;;;;;;;;;17.70;99.90;;;;;;5031869;28;20508;-45
2023/08/03 06:06:48;;;;;;;;;;;17.70;99.90;;;;;;5040110;28;19921;-44
2023/08/03 06:09:15;;;;;;;;;;;17.80;99.90;;;;;;5037794;28;20290;-45
2023/08/03 06:11:42;;;;;;;;;;;17.80;99.90;;;;;;5026897;28;20369;-45
2023/08/03 06:14:11;;;;;;;;;;;17.90;99.90;;;;;;5032727;28;19924;-44
2023/08/03 06:16:38;;;;;;;;;;;18.00;99.90;;;;;;5035490;28;20328;-45
2023/08/03 06:19:05;;;;;;;;;;;18.00;99.90;;;;;;5034438;28;19928;-46
2023/08/03 06:21:32;;;;;;;;;;;18.10;99.90;;;;;;5031883;28;19991;-44
2023/08/03 06:23:59;;;;;;;;;;;18.20;99.90;;;;;;5031931;28;19921;-45
2023/08/03 06:26:26;;;;;;;;;;;18.20;99.90;;;;;;5032359;28;20387;-45
2023/08/03 06:28:53;;;;;;;;;;;18.10;99.90;;;;;;5030901;28;19928;-45
2023/08/03 06:31:23;;;;;;;;;;;18.10;99.90;;;;;;5033333;28;19921;-45
2023/08/03 06:33:50;;;;;;;;;;;18.10;99.90;;;;;;5032498;28;19925;-45
2023/08/03 06:36:17;;;;;;;;;;;18.10;99.90;;;;;;5027721;28;20010;-45
2023/08/03 06:38:44;;;;;;;;;;;18.10;99.90;;;;;;5030207;28;19932;-45
2023/08/03 06:41:10;;;;;;;;;;;18.20;99.90;;;;;;5032466;28;20293;-45
2023/08/03 06:43:37;;;;;;;;;;;18.30;99.90;;;;;;5040557;28;19921;-45
2023/08/03 06:46:04;;;;;;;;;;;18.30;99.90;;;;;;5036019;28;20019;-45
2023/08/03 06:48:32;;;;;;;;;;;18.40;99.90;;;;;;5032692;28;20423;-45
2023/08/03 06:50:59;;;;;;;;;;;18.40;99.90;;;;;;5043574;28;19921;-45
2023/08/03 06:53:25;;;;;;;;;;;18.50;99.90;;;;;;5031078;28;19987;-45
2023/08/03 06:55:52;;;;;;;;;;;18.50;99.90;;;;;;5032074;28;19921;-43
2023/08/03 06:58:19;;;;;;;;;;;18.50;99.90;;;;;;5033308;28;19921;-45
2023/08/03 07:00:46;;;;;;;;;;;18.50;99.90;;;;;;5031782;28;19916;-46
2023/08/03 07:03:12;;;;;;;;;;;18.60;99.90;;;;;;5031460;28;19975;-44
2023/08/03 07:05:40;;;;;;;;;;;18.70;99.90;;;;;;5031304;28;19920;-46
2023/08/03 07:08:07;;;;;;;;;;;18.80;99.90;;;;;;5027888;28;20400;-45
2023/08/03 07:10:34;;;;;;;;;;;18.90;99.90;;;;;;5031862;28;19964;-46
2023/08/03 07:13:01;;;;;;;;;;;19.00;99.90;;;;;;5029286;28;19917;-46
2023/08/03 07:15:33;;;;;;;;;;;19.10;99.90;;;;;;5030243;28;19932;-45
2023/08/03 07:18:00;;;;;;;;;;;19.20;99.90;;;;;;5028097;28;20008;-46
2023/08/03 07:20:27;;;;;;;;;;;19.40;99.90;;;;;;5030310;28;19917;-45
2023/08/03 07:22:55;;;;;;;;;;;19.50;99.90;;;;;;5030835;28;20032;-45
2023/08/03 07:25:22;;;;;;;;;;;19.50;99.90;;;;;;5031011;28;19921;-45
2023/08/03 07:27:49;;;;;;;;;;;19.60;99.90;;;;;;5032036;28;19917;-45
2023/08/03 07:30:16;;;;;;;;;;;19.70;99.90;;;;;;5032766;28;19924;-46
2023/08/03 07:32:43;;;;;;;;;;;19.70;99.90;;;;;;5029717;28;19923;-45
2023/08/03 07:35:09;;;;;;;;;;;19.80;99.90;;;;;;5026523;28;20365;-45
2023/08/03 07:37:36;;;;;;;;;;;19.80;99.90;;;;;;5024473;28;19979;-45
2023/08/03 07:40:05;;;;;;;;;;;19.90;99.90;;;;;;5031321;28;20423;-45
2023/08/03 07:42:31;;;;;;;;;;;19.90;99.90;;;;;;5031601;28;20272;-45
2023/08/03 07:44:58;;;;;;;;;;;20.00;99.90;;;;;;5033156;28;19917;-45
2023/08/03 07:47:25;;;;;;;;;;;20.10;99.90;;;;;;5032219;28;20019;-46
2023/08/03 07:49:54;;;;;;;;;;;20.00;99.90;;;;;;5033194;28;19924;-45
2023/08/03 07:52:20;;;;;;;;;;;20.00;99.90;;;;;;5029360;28;20011;-45
2023/08/03 07:54:47;;;;;;;;;;;20.10;99.90;;;;;;5032854;28;19975;-45
2023/08/03 07:57:16;;;;;;;;;;;20.20;99.90;;;;;;5033246;28;19921;-46
2023/08/03 07:59:42;;;;;;;;;;;20.30;99.90;;;;;;5031670;28;19924;-44
2023/08/03 08:02:09;;;;;;;;;;;20.40;99.90;;;;;;5026580;28;19944;-44
2023/08/03 08:04:36;;;;;;;;;;;20.60;99.90;;;;;;5031892;28;19994;-45
2023/08/03 08:07:02;;;;;;;;;;;20.70;99.90;;;;;;5032077;28;19924;-44
2023/08/03 08:09:29;;;;;;;;;;;20.80;99.90;;;;;;5015026;28;19925;-45
2023/08/03 08:11:56;;;;;;;;;;;20.80;99.90;;;;;;5013247;28;19925;-45
2023/08/03 08:14:24;;;;;;;;;;;20.90;99.90;;;;;;5028482;28;19917;-46
2023/08/03 08:16:50;;;;;;;;;;;21.00;99.90;;;;;;5019025;28;19966;-45
2023/08/03 08:19:17;;;;;;;;;;;21.00;99.90;;;;;;5027408;28;19920;-45
2023/08/03 08:21:44;;;;;;;;;;;21.10;99.90;;;;;;5028161;28;19924;-45
2023/08/03 08:24:10;;;;;;;;;;;21.10;99.90;;;;;;5026548;28;19928;-45
2023/08/03 08:26:37;;;;;;;;;;;20.90;99.90;;;;;;5024739;28;19921;-44
2023/08/03 08:29:04;;;;;;;;;;;20.80;99.90;;;;;;5025942;28;20365;-45
2023/08/03 08:31:32;;;;;;;;;;;20.80;99.90;;;;;;5022065;28;19924;-44
2023/08/03 08:33:58;;;;;;;;;;;21.00;99.90;;;;;;5028518;28;19921;-43
2023/08/03 08:36:25;;;;;;;;;;;21.20;99.90;;;;;;5031407;28;19924;-45
2023/08/03 08:38:52;;;;;;;;;;;21.30;99.90;;;;;;5028374;28;19917;-45
2023/08/03 08:41:19;;;;;;;;;;;21.40;99.90;;;;;;5030611;28;19917;-45
2023/08/03 08:43:45;;;;;;;;;;;21.50;99.90;;;;;;5028087;28;20312;-45
2023/08/03 08:46:12;;;;;;;;;;;21.50;99.90;;;;;;5029625;28;19952;-46
2023/08/03 08:48:40;;;;;;;;;;;21.60;99.90;;;;;;5030720;28;19963;-45
2023/08/03 08:51:07;;;;;;;;;;;21.70;99.90;;;;;;5028051;28;19917;-44
2023/08/03 08:53:33;;;;;;;;;;;21.80;99.90;;;;;;5029531;28;19925;-45
2023/08/03 08:56:00;;;;;;;;;;;21.90;99.90;;;;;;5029806;28;20035;-45
2023/08/03 08:58:27;;;;;;;;;;;22.00;99.90;;;;;;5032151;28;19923;-45
2023/08/03 09:00:54;;;;;;;;;;;22.20;99.90;;;;;;5032060;28;19923;-45
2023/08/03 09:03:21;;;;;;;;;;;22.30;99.90;;;;;;5032699;28;19924;-45
2023/08/03 09:05:59;;;;;;;;;;;22.40;99.90;;;;;;5030960;28;20304;-45
2023/08/03 09:08:26;;;;;;;;;;;22.50;99.90;;;;;;5032792;28;20016;-45
2023/08/03 09:10:53;;;;;;;;;;;22.50;99.90;;;;;;5033207;28;19956;-46
2023/08/03 09:13:27;;;;;;;;;;;22.50;99.90;;;;;;5033086;28;19917;-45
2023/08/03 09:15:54;;;;;;;;;;;22.50;99.90;;;;;;5033537;28;19917;-46
2023/08/03 09:18:21;;;;;;;;;;;22.40;99.90;;;;;;5034415;28;19917;-45
2023/08/03 09:20:47;;;;;;;;;;;22.40;99.90;;;;;;5034052;28;19967;-45
2023/08/03 09:23:27;;;;;;;;;;;22.40;99.90;;;;;;5034410;28;19951;-45
2023/08/03 09:25:53;;;;;;;;;;;22.40;99.90;;;;;;5032509;28;19917;-46
2023/08/03 09:28:20;;;;;;;;;;;22.50;99.90;;;;;;5035835;28;19921;-44
2023/08/03 09:30:50;;;;;;;;;;;22.80;99.90;;;;;;5034979;28;19924;-45
2023/08/03 09:33:17;;;;;;;;;;;22.90;99.90;;;;;;5035255;28;19917;-45
2023/08/03 09:43:18;;;;;;;;;;;23.70;99.90;;;;;;4554668;22;1989560;-37
2023/08/03 09:45:44;;;;;;;;;;;23.70;99.90;;;;;;5061474;28;19940;-38
2023/08/03 09:48:11;;;;;;;;;;;23.90;99.90;;;;;;5066181;28;19932;-39
2023/08/03 09:50:38;;;;;;;;;;;24.00;99.90;;;;;;5054269;28;19990;-38
2023/08/03 09:53:05;;;;;;;;;;;24.10;99.90;;;;;;5054311;28;19925;-37
2023/08/03 09:55:32;;;;;;;;;;;24.20;99.90;;;;;;5063330;28;19933;-38
2023/08/03 09:58:00;;;;;;;;;;;24.30;99.90;;;;;;5049737;28;20268;-39
2023/08/03 10:00:28;;;;;;;;;;;24.30;99.90;;;;;;5055847;28;20444;-37
2023/08/03 10:02:56;;;;;;;;;;;24.30;99.90;;;;;;5053723;28;19932;-39
2023/08/03 10:05:23;;;;;;;;;;;24.40;99.90;;;;;;5054872;28;19972;-40
2023/08/03 10:07:52;;;;;;;;;;;24.60;99.90;;;;;;5050875;28;19933;-38
2023/08/03 10:10:18;;;;;;;;;;;24.60;99.90;;;;;;5050735;28;20298;-39
2023/08/03 10:12:45;;;;;;;;;;;24.70;99.90;;;;;;5052799;28;19995;-38
2023/08/03 10:15:12;;;;;;;;;;;24.60;99.90;;;;;;5045675;28;19979;-39
2023/08/03 10:17:40;;;;;;;;;;;24.60;99.90;;;;;;5061596;28;19925;-37
2023/08/03 10:20:07;;;;;;;;;;;24.40;99.90;;;;;;5056881;28;20418;-40
2023/08/03 10:22:34;;;;;;;;;;;24.50;99.90;;;;;;5048679;28;19925;-39
2023/08/03 10:25:16;;;;;;;;;;;24.60;99.90;;;;;;5041573;28;19925;-39
2023/08/03 10:27:43;;;;;;;;;;;24.70;99.90;;;;;;5055184;28;20384;-40
2023/08/03 10:30:10;;;;;;;;;;;24.90;99.90;;;;;;5050001;28;19932;-39
2023/08/03 10:32:37;;;;;;;;;;;25.00;99.90;;;;;;5051855;28;20027;-39
2023/08/03 10:35:18;;;;;;;;;;;25.00;99.90;;;;;;5059807;28;20277;-39
2023/08/03 10:37:47;;;;;;;;;;;25.10;99.90;;;;;;5068498;28;19994;-40
2023/08/03 10:40:22;;;;;;;;;;;25.10;99.90;;;;;;5059026;28;19925;-36
2023/08/03 10:42:49;;;;;;;;;;;25.20;99.90;;;;;;5052425;28;19932;-39
2023/08/03 10:45:26;;;;;;;;;;;25.30;99.90;;;;;;5048031;28;19925;-40
2023/08/03 10:47:53;;;;;;;;;;;25.40;99.90;;;;;;5048639;28;19974;-39
2023/08/03 10:50:20;;;;;;;;;;;25.40;99.90;;;;;;5064184;28;19976;-39
2023/08/03 10:52:48;;;;;;;;;;;25.40;99.90;;;;;;5044674;28;19925;-40
2023/08/03 10:55:21;;;;;;;;;;;25.50;99.90;;;;;;5034569;28;20367;-39
2023/08/03 10:57:48;;;;;;;;;;;25.50;99.90;;;;;;5035758;28;19929;-39
2023/08/03 11:00:15;;;;;;;;;;;25.50;99.90;;;;;;5053256;28;19925;-39
2023/08/03 11:02:42;;;;;;;;;;;25.70;99.90;;;;;;5055097;28;19924;-39
2023/08/03 11:05:11;;;;;;;;;;;25.80;99.90;;;;;;5052678;28;20335;-40
2023/08/03 11:07:38;;;;;;;;;;;26.00;99.90;;;;;;5051993;28;20303;-39
2023/08/03 11:10:07;;;;;;;;;;;26.20;99.90;;;;;;5035258;28;20034;-40
2023/08/03 11:12:34;;;;;;;;;;;26.20;99.90;;;;;;5046127;28;19925;-37
2023/08/03 11:15:01;;;;;;;;;;;26.30;99.90;;;;;;5054920;28;20027;-38
2023/08/03 11:17:28;;;;;;;;;;;26.40;99.90;;;;;;5051470;28;20294;-39
2023/08/03 11:19:55;;;;;;;;;;;26.40;99.90;;;;;;5054835;28;19931;-40
2023/08/03 11:22:22;;;;;;;;;;;26.30;99.90;;;;;;5054917;28;19925;-39
2023/08/03 11:24:49;;;;;;;;;;;26.20;99.90;;;;;;5053244;28;20425;-39
2023/08/03 11:27:17;;;;;;;;;;;26.10;99.90;;;;;;5050836;28;19925;-39
2023/08/03 11:29:44;;;;;;;;;;;26.10;99.90;;;;;;5054682;28;19986;-39
2023/08/03 11:32:11;;;;;;;;;;;26.20;99.90;;;;;;5053040;28;20019;-39
2023/08/03 11:34:38;;;;;;;;;;;26.40;99.90;;;;;;5054530;28;19933;-38
2023/08/03 11:37:05;;;;;;;;;;;26.50;99.90;;;;;;5053288;28;19978;-39
2023/08/03 11:39:32;;;;;;;;;;;26.50;99.90;;;;;;5035904;28;20402;-39
2023/08/03 11:41:58;;;;;;;;;;;26.60;99.90;;;;;;5034026;28;20295;-38
2023/08/03 11:44:26;;;;;;;;;;;26.60;99.90;;;;;;5013400;28;19975;-39
2023/08/03 11:47:03;;;;;;;;;;;26.70;99.90;;;;;;5014658;28;19948;-38
2023/08/03 11:49:30;;;;;;;;;;;26.70;99.90;;;;;;5044156;28;19931;-38
2023/08/03 11:51:59;;;;;;;;;;;26.70;99.90;;;;;;5049349;28;20416;-39
2023/08/03 11:54:27;;;;;;;;;;;26.70;99.90;;;;;;5053293;28;19931;-37
2023/08/03 11:56:54;;;;;;;;;;;26.80;99.90;;;;;;5050717;28;20008;-39
2023/08/03 11:59:19;;;;;;;;;;;26.90;99.90;;;;;;5054215;28;20295;-39
2023/08/03 12:01:48;;;;;;;;;;;27.00;99.90;;;;;;5051744;28;19932;-38
2023/08/03 12:04:14;;;;;;;;;;;27.00;99.90;;;;;;5052051;28;20368;-38
2023/08/03 12:06:47;;;;;;;;;;;26.80;99.90;;;;;;5052357;28;19940;-39
2023/08/03 12:09:17;;;;;;;;;;;26.70;99.90;;;;;;5033645;28;19932;-36
2023/08/03 12:11:44;;;;;;;;;;;26.50;99.90;;;;;;5033645;28;19926;-39
2023/08/03 12:14:11;;;;;;;;;;;26.20;99.90;;;;;;5031718;28;19933;-39
2023/08/03 12:16:38;;;;;;;;;;;26.10;99.90;;;;;;5032255;28;19933;-38
2023/08/03 12:19:08;;;;;;;;;;;26.10;99.90;;;;;;5032258;28;19934;-39
2023/08/03 12:21:35;;;;;;;;;;;26.10;99.90;;;;;;5047377;28;19980;-38
2023/08/03 12:24:01;;;;;;;;;;;26.20;99.90;;;;;;5037170;28;19929;-38
2023/08/03 12:26:28;;;;;;;;;;;26.30;99.90;;;;;;5041005;28;19929;-38
2023/08/03 12:28:55;;;;;;;;;;;26.40;99.90;;;;;;5041707;28;19925;-39
2023/08/03 12:31:22;;;;;;;;;;;26.20;99.90;;;;;;5051122;28;19925;-36
2023/08/03 12:33:48;;;;;;;;;;;26.10;99.90;;;;;;5038997;28;19932;-36
2023/08/03 12:36:17;;;;;;;;;;;25.90;99.90;;;;;;5035928;28;19936;-36
2023/08/03 12:38:44;;;;;;;;;;;25.70;99.90;;;;;;5031975;28;19936;-38
2023/08/03 12:41:10;;;;;;;;;;;25.60;99.90;;;;;;5033923;28;19925;-36
2023/08/03 12:43:37;;;;;;;;;;;25.60;99.90;;;;;;5032209;28;19979;-35
2023/08/03 12:46:03;;;;;;;;;;;25.70;99.90;;;;;;5035025;28;19932;-37
2023/08/03 12:48:30;;;;;;;;;;;25.60;99.90;;;;;;5049292;28;19972;-38
2023/08/03 12:50:57;;;;;;;;;;;25.50;99.90;;;;;;5051764;28;19928;-38
2023/08/03 12:53:25;;;;;;;;;;;25.50;99.90;;;;;;5049934;28;19925;-37
2023/08/03 12:55:52;;;;;;;;;;;25.40;99.90;;;;;;5050621;28;20334;-39
2023/08/03 12:58:18;;;;;;;;;;;25.50;99.90;;;;;;5044173;28;19929;-36
2023/08/03 13:00:45;;;;;;;;;;;25.50;99.90;;;;;;5032632;28;19932;-37
2023/08/03 13:03:12;;;;;;;;;;;25.60;99.90;;;;;;5036416;28;19971;-36
2023/08/03 13:05:39;;;;;;;;;;;25.50;99.90;;;;;;5039148;28;19935;-35
2023/08/03 13:08:05;;;;;;;;;;;25.40;99.90;;;;;;5046243;28;20395;-35
2023/08/03 13:10:33;;;;;;;;;;;25.40;99.90;;;;;;5029907;28;20437;-37
2023/08/03 13:13:00;;;;;;;;;;;25.40;99.90;;;;;;5028165;28;20285;-35
2023/08/03 13:15:27;;;;;;;;;;;25.40;99.90;;;;;;5031055;28;19933;-37
2023/08/03 13:17:54;;;;;;;;;;;25.40;99.90;;;;;;5032406;28;20020;-38
2023/08/03 13:20:20;;;;;;;;;;;25.10;99.90;;;;;;5035467;28;19925;-37
2023/08/03 13:22:47;;;;;;;;;;;24.80;99.90;;;;;;5042696;28;19925;-37
2023/08/03 13:25:14;;;;;;;;;;;24.50;99.90;;;;;;5029589;28;20337;-37
2023/08/03 13:27:42;;;;;;;;;;;24.30;99.90;;;;;;5031556;28;19925;-36
2023/08/03 13:30:09;;;;;;;;;;;24.00;99.90;;;;;;5034313;28;19929;-37
2023/08/03 13:32:37;;;;;;;;;;;24.00;99.90;;;;;;5030734;28;19929;-37
2023/08/03 13:35:04;;;;;;;;;;;24.10;99.90;;;;;;5032076;28;19940;-37
2023/08/03 13:37:31;;;;;;;;;;;24.10;99.90;;;;;;5034939;28;19925;-37
2023/08/03 13:39:58;;;;;;;;;;;24.00;99.90;;;;;;5038247;28;20305;-37
2023/08/03 13:42:25;;;;;;;;;;;23.90;99.90;;;;;;5029605;28;20345;-35
2023/08/03 13:44:53;;;;;;;;;;;23.70;99.90;;;;;;5036390;28;19931;-36
2023/08/03 13:47:19;;;;;;;;;;;23.60;99.90;;;;;;5031062;28;19932;-36
2023/08/03 13:49:46;;;;;;;;;;;23.40;99.90;;;;;;5032104;28;19925;-37
2023/08/03 13:52:13;;;;;;;;;;;23.40;99.90;;;;;;5033520;28;19925;-36
2023/08/03 13:54:40;;;;;;;;;;;23.40;99.90;;;;;;5033946;28;20376;-36
2023/08/03 13:57:07;;;;;;;;;;;23.30;99.90;;;;;;5030720;28;20454;-37
2023/08/03 13:59:33;;;;;;;;;;;23.30;99.90;;;;;;5030430;28;19933;-37
2023/08/03 14:02:01;;;;;;;;;;;23.30;99.90;;;;;;5029483;28;19971;-36
2023/08/03 14:04:31;;;;;;;;;;;23.10;99.90;;;;;;5032135;28;20058;-36
2023/08/03 14:06:58;;;;;;;;;;;22.90;99.90;;;;;;5032287;28;20322;-35
2023/08/03 14:09:25;;;;;;;;;;;22.80;99.90;;;;;;5030694;28;19925;-36
2023/08/03 14:11:52;;;;;;;;;;;22.80;99.90;;;;;;5025891;28;19955;-35
2023/08/03 14:14:18;;;;;;;;;;;22.90;99.90;;;;;;5025138;28;20442;-36
2023/08/03 14:16:48;;;;;;;;;;;22.90;99.90;;;;;;5030972;28;19932;-37
2023/08/03 14:19:16;;;;;;;;;;;23.00;99.90;;;;;;5024560;28;19953;-35
2023/08/03 14:21:43;;;;;;;;;;;23.10;99.90;;;;;;5024243;28;20335;-36
2023/08/03 14:24:10;;;;;;;;;;;23.10;99.90;;;;;;5031280;28;19957;-37